sensor_id;sensor_type;location;lat;lon;timestamp;temperature;humidity
64939;DHT22;51453;47.738;7.420;2024-03-08T00:00:55;0.70;99.90
64939;DHT22;51453;47.738;7.420;2024-03-08T00:03:21;0.70;99.90
64939;DHT22;51453;47.738;7.420;2024-03-08T00:05:47;0.80;99.90
64939;DHT22;51453;47.738;7.420;2024-03-08T00:08:13;0.80;99.90
64939;DHT22;51453;47.738;7.420;2024-03-08T00:10:39;0.80;99.90
64939;DHT22;51453;47.738;7.420;2024-03-08T00:13:04;0.70;99.90
64939;DHT22;51453;47.738;7.420;2024-03-08T00:15:30;0.60;99.90
64939;DHT22;51453;47.738;7.420;2024-03-08T00:17:57;0.60;99.90
64939;DHT22;51453;47.738;7.420;2024-03-08T00:20:23;0.60;99.90
64939;DHT22;51453;47.738;7.420;2024-03-08T00:22:49;0.50;99.90
64939;DHT22;51453;47.738;7.420;2024-03-08T00:25:14;0.50;99.90
64939;DHT22;51453;47.738;7.420;2024-03-08T00:27:40;0.50;99.90
64939;DHT22;51453;47.738;7.420;2024-03-08T00:30:09;0.60;99.90
64939;DHT22;51453;47.738;7.420;2024-03-08T00:32:36;0.50;99.90
64939;DHT22;51453;47.738;7.420;2024-03-08T00:35:02;0.50;99.90
64939;DHT22;51453;47.738;7.420;2024-03-08T00:37:28;0.50;99.90
64939;DHT22;51453;47.738;7.420;2024-03-08T00:39:53;0.50;99.90
64939;DHT22;51453;47.738;7.420;2024-03-08T00:42:20;0.50;99.90
64939;DHT22;51453;47.738;7.420;2024-03-08T00:44:46;0.50;99.90
64939;DHT22;51453;47.738;7.420;2024-03-08T00:47:13;0.50;99.90
64939;DHT22;51453;47.738;7.420;2024-03-08T00:49:41;0.40;99.90
64939;DHT22;51453;47.738;7.420;2024-03-08T00:52:07;0.30;99.90
64939;DHT22;51453;47.738;7.420;2024-03-08T00:54:34;0.30;99.90
64939;DHT22;51453;47.738;7.420;2024-03-08T00:57:01;0.20;99.90
64939;DHT22;51453;47.738;7.420;2024-03-08T00:59:28;0.20;99.90
64939;DHT22;51453;47.738;7.420;2024-03-08T01:01:54;0.10;99.90
64939;DHT22;51453;47.738;7.420;2024-03-08T01:04:20;0.10;99.90
64939;DHT22;51453;47.738;7.420;2024-03-08T01:06:47;0.10;99.90
64939;DHT22;51453;47.738;7.420;2024-03-08T01:09:13;0.10;99.90
64939;DHT22;51453;47.738;7.420;2024-03-08T01:11:39;0.00;99.90
64939;DHT22;51453;47.738;7.420;2024-03-08T01:14:04;-0.10;99.90
64939;DHT22;51453;47.738;7.420;2024-03-08T01:16:30;0.00;99.90
64939;DHT22;51453;47.738;7.420;2024-03-08T01:18:58;-0.10;99.90
64939;DHT22;51453;47.738;7.420;2024-03-08T01:21:24;-0.10;99.90
64939;DHT22;51453;47.738;7.420;2024-03-08T01:23:49;-0.10;99.90
64939;DHT22;51453;47.738;7.420;2024-03-08T01:26:15;-0.10;99.90
64939;DHT22;51453;47.738;7.420;2024-03-08T01:28:41;-0.10;99.90
64939;DHT22;51453;47.738;7.420;2024-03-08T01:31:07;-0.20;99.90
64939;DHT22;51453;47.738;7.420;2024-03-08T01:33:33;-0.20;99.90
64939;DHT22;51453;47.738;7.420;2024-03-08T01:35:58;-0.20;99.90
64939;DHT22;51453;47.738;7.420;2024-03-08T01:38:24;-0.20;99.90
64939;DHT22;51453;47.738;7.420;2024-03-08T01:40:50;-0.20;99.90
64939;DHT22;51453;47.738;7.420;2024-03-08T01:43:26;-0.20;99.90
64939;DHT22;51453;47.738;7.420;2024-03-08T01:45:58;-0.30;99.90
64939;DHT22;51453;47.738;7.420;2024-03-08T01:48:28;-0.30;99.90
64939;DHT22;51453;47.738;7.420;2024-03-08T01:50:58;-0.30;99.90
64939;DHT22;51453;47.738;7.420;2024-03-08T01:53:24;-0.40;99.90
64939;DHT22;51453;47.738;7.420;2024-03-08T01:55:55;-0.40;99.90
64939;DHT22;51453;47.738;7.420;2024-03-08T01:58:22;-0.40;99.90
64939;DHT22;51453;47.738;7.420;2024-03-08T02:00:49;-0.30;99.90
64939;DHT22;51453;47.738;7.420;2024-03-08T02:03:18;-0.30;99.90
64939;DHT22;51453;47.738;7.420;2024-03-08T02:05:44;-0.30;99.90
64939;DHT22;51453;47.738;7.420;2024-03-08T02:08:10;-0.30;99.90
64939;DHT22;51453;47.738;7.420;2024-03-08T02:10:43;-0.40;99.90
64939;DHT22;51453;47.738;7.420;2024-03-08T02:13:09;-0.40;99.90
64939;DHT22;51453;47.738;7.420;2024-03-08T02:18:18;-0.50;99.90
64939;DHT22;51453;47.738;7.420;2024-03-08T02:20:51;-0.50;99.90
64939;DHT22;51453;47.738;7.420;2024-03-08T02:23:18;-0.50;99.90
64939;DHT22;51453;47.738;7.420;2024-03-08T02:25:44;-0.40;99.90
64939;DHT22;51453;47.738;7.420;2024-03-08T02:28:11;-0.50;99.90
64939;DHT22;51453;47.738;7.420;2024-03-08T02:30:38;-0.50;99.90
64939;DHT22;51453;47.738;7.420;2024-03-08T02:33:07;-0.50;99.90
64939;DHT22;51453;47.738;7.420;2024-03-08T02:35:35;-0.50;99.90
64939;DHT22;51453;47.738;7.420;2024-03-08T02:38:01;-0.60;99.90
64939;DHT22;51453;47.738;7.420;2024-03-08T02:40:27;-0.60;99.90
64939;DHT22;51453;47.738;7.420;2024-03-08T02:42:53;-0.60;99.90
64939;DHT22;51453;47.738;7.420;2024-03-08T02:45:18;-0.60;99.90
64939;DHT22;51453;47.738;7.420;2024-03-08T02:47:44;-0.50;99.90
64939;DHT22;51453;47.738;7.420;2024-03-08T02:50:10;-0.50;99.90
64939;DHT22;51453;47.738;7.420;2024-03-08T02:52:37;-0.50;99.90
64939;DHT22;51453;47.738;7.420;2024-03-08T02:55:03;-0.50;99.90
64939;DHT22;51453;47.738;7.420;2024-03-08T02:57:30;-0.50;99.90
64939;DHT22;51453;47.738;7.420;2024-03-08T02:59:56;-0.40;99.90
64939;DHT22;51453;47.738;7.420;2024-03-08T03:02:21;-0.40;99.90
64939;DHT22;51453;47.738;7.420;2024-03-08T03:04:48;-0.50;99.90
64939;DHT22;51453;47.738;7.420;2024-03-08T03:07:14;-0.60;99.90
64939;DHT22;51453;47.738;7.420;2024-03-08T03:09:40;-0.60;99.90
64939;DHT22;51453;47.738;7.420;2024-03-08T03:12:06;-0.60;99.90
64939;DHT22;51453;47.738;7.420;2024-03-08T03:14:35;-0.60;99.90
64939;DHT22;51453;47.738;7.420;2024-03-08T03:17:04;-0.60;99.90
64939;DHT22;51453;47.738;7.420;2024-03-08T03:19:30;-0.60;99.90
64939;DHT22;51453;47.738;7.420;2024-03-08T03:21:56;-0.70;99.90
64939;DHT22;51453;47.738;7.420;2024-03-08T03:24:22;-0.70;99.90
64939;DHT22;51453;47.738;7.420;2024-03-08T03:26:49;-0.70;99.90
64939;DHT22;51453;47.738;7.420;2024-03-08T03:29:16;-0.70;99.90
64939;DHT22;51453;47.738;7.420;2024-03-08T03:31:42;-0.60;99.90
64939;DHT22;51453;47.738;7.420;2024-03-08T03:34:11;-0.60;99.90
64939;DHT22;51453;47.738;7.420;2024-03-08T03:36:37;-0.60;99.90
64939;DHT22;51453;47.738;7.420;2024-03-08T03:39:10;-0.70;99.90
64939;DHT22;51453;47.738;7.420;2024-03-08T03:41:38;-0.70;99.90
64939;DHT22;51453;47.738;7.420;2024-03-08T03:44:07;-0.70;99.90
64939;DHT22;51453;47.738;7.420;2024-03-08T03:46:33;-0.70;99.90
64939;DHT22;51453;47.738;7.420;2024-03-08T03:48:59;-0.70;99.90
64939;DHT22;51453;47.738;7.420;2024-03-08T03:51:25;-0.80;99.90
64939;DHT22;51453;47.738;7.420;2024-03-08T03:53:51;-0.80;99.90
64939;DHT22;51453;47.738;7.420;2024-03-08T03:56:18;-0.80;99.90
64939;DHT22;51453;47.738;7.420;2024-03-08T03:58:44;-0.80;99.90
64939;DHT22;51453;47.738;7.420;2024-03-08T04:01:09;-0.70;99.90
64939;DHT22;51453;47.738;7.420;2024-03-08T04:03:35;-0.70;99.90
64939;DHT22;51453;47.738;7.420;2024-03-08T04:06:03;-0.80;99.90
64939;DHT22;51453;47.738;7.420;2024-03-08T04:08:30;-0.80;99.90
64939;DHT22;51453;47.738;7.420;2024-03-08T04:10:55;-0.80;99.90
64939;DHT22;51453;47.738;7.420;2024-03-08T04:13:21;-0.80;99.90
64939;DHT22;51453;47.738;7.420;2024-03-08T04:15:46;-0.80;99.90
64939;DHT22;51453;47.738;7.420;2024-03-08T04:18:15;-0.80;99.90
64939;DHT22;51453;47.738;7.420;2024-03-08T04:20:40;-0.80;99.90
64939;DHT22;51453;47.738;7.420;2024-03-08T04:23:06;-0.80;99.90
64939;DHT22;51453;47.738;7.420;2024-03-08T04:25:32;-0.80;99.90
64939;DHT22;51453;47.738;7.420;2024-03-08T04:27:58;-0.80;99.90
64939;DHT22;51453;47.738;7.420;2024-03-08T04:30:24;-0.80;99.90
64939;DHT22;51453;47.738;7.420;2024-03-08T04:32:50;-0.90;99.90
64939;DHT22;51453;47.738;7.420;2024-03-08T04:35:16;-1.00;99.90
64939;DHT22;51453;47.738;7.420;2024-03-08T04:37:41;-0.90;99.90
64939;DHT22;51453;47.738;7.420;2024-03-08T04:40:07;-0.90;99.90
64939;DHT22;51453;47.738;7.420;2024-03-08T04:42:34;-0.90;99.90
64939;DHT22;51453;47.738;7.420;2024-03-08T04:45:00;-1.00;99.90
64939;DHT22;51453;47.738;7.420;2024-03-08T04:47:26;-1.00;99.90
64939;DHT22;51453;47.738;7.420;2024-03-08T04:49:51;-1.00;99.90
64939;DHT22;51453;47.738;7.420;2024-03-08T04:52:17;-1.00;99.90
64939;DHT22;51453;47.738;7.420;2024-03-08T04:54:43;-0.90;99.90
64939;DHT22;51453;47.738;7.420;2024-03-08T04:57:10;-0.80;99.90
64939;DHT22;51453;47.738;7.420;2024-03-08T04:59:36;-0.80;99.90
64939;DHT22;51453;47.738;7.420;2024-03-08T05:02:02;-0.70;99.90
64939;DHT22;51453;47.738;7.420;2024-03-08T05:04:28;-0.70;99.90
64939;DHT22;51453;47.738;7.420;2024-03-08T05:06:54;-0.70;99.90
64939;DHT22;51453;47.738;7.420;2024-03-08T05:09:20;-0.60;99.90
64939;DHT22;51453;47.738;7.420;2024-03-08T05:11:47;-0.60;99.90
64939;DHT22;51453;47.738;7.420;2024-03-08T05:14:14;-0.70;99.90
64939;DHT22;51453;47.738;7.420;2024-03-08T05:16:43;-0.70;99.90
64939;DHT22;51453;47.738;7.420;2024-03-08T05:19:09;-0.60;99.90
64939;DHT22;51453;47.738;7.420;2024-03-08T05:21:34;-0.70;99.90
64939;DHT22;51453;47.738;7.420;2024-03-08T05:24:00;-0.70;99.90
64939;DHT22;51453;47.738;7.420;2024-03-08T05:26:26;-0.70;99.90
64939;DHT22;51453;47.738;7.420;2024-03-08T05:28:52;-0.70;99.90
64939;DHT22;51453;47.738;7.420;2024-03-08T05:31:21;-0.70;99.90
64939;DHT22;51453;47.738;7.420;2024-03-08T05:33:49;-0.70;99.90
64939;DHT22;51453;47.738;7.420;2024-03-08T05:36:16;-0.80;99.90
64939;DHT22;51453;47.738;7.420;2024-03-08T05:38:44;-0.80;99.90
64939;DHT22;51453;47.738;7.420;2024-03-08T05:41:10;-0.90;99.90
64939;DHT22;51453;47.738;7.420;2024-03-08T05:43:37;-0.90;99.90
64939;DHT22;51453;47.738;7.420;2024-03-08T05:46:04;-0.90;99.90
64939;DHT22;51453;47.738;7.420;2024-03-08T05:48:32;-0.90;99.90
64939;DHT22;51453;47.738;7.420;2024-03-08T05:50:59;-0.90;99.90
64939;DHT22;51453;47.738;7.420;2024-03-08T05:53:25;-1.00;99.90
64939;DHT22;51453;47.738;7.420;2024-03-08T05:55:50;-1.00;99.90
64939;DHT22;51453;47.738;7.420;2024-03-08T05:58:16;-1.00;99.90
64939;DHT22;51453;47.738;7.420;2024-03-08T06:00:41;-1.00;99.90
64939;DHT22;51453;47.738;7.420;2024-03-08T06:03:07;-1.00;99.90
64939;DHT22;51453;47.738;7.420;2024-03-08T06:05:33;-1.00;99.90
64939;DHT22;51453;47.738;7.420;2024-03-08T06:07:58;-1.00;99.90
64939;DHT22;51453;47.738;7.420;2024-03-08T06:10:24;-1.00;99.90
64939;DHT22;51453;47.738;7.420;2024-03-08T06:12:50;-0.90;99.90
64939;DHT22;51453;47.738;7.420;2024-03-08T06:15:16;-0.90;99.90
64939;DHT22;51453;47.738;7.420;2024-03-08T06:17:42;-0.90;99.90
64939;DHT22;51453;47.738;7.420;2024-03-08T06:20:08;-0.90;99.90
64939;DHT22;51453;47.738;7.420;2024-03-08T06:22:41;-0.80;99.90
64939;DHT22;51453;47.738;7.420;2024-03-08T06:25:11;-0.80;99.90
64939;DHT22;51453;47.738;7.420;2024-03-08T06:27:42;-0.70;99.90
64939;DHT22;51453;47.738;7.420;2024-03-08T06:30:08;-0.60;99.90
64939;DHT22;51453;47.738;7.420;2024-03-08T06:32:37;-0.60;99.90
64939;DHT22;51453;47.738;7.420;2024-03-08T06:35:06;-0.50;99.90
64939;DHT22;51453;47.738;7.420;2024-03-08T06:37:35;-0.30;99.90
64939;DHT22;51453;47.738;7.420;2024-03-08T06:40:02;-0.20;99.90
64939;DHT22;51453;47.738;7.420;2024-03-08T06:42:29;-0.10;99.90
64939;DHT22;51453;47.738;7.420;2024-03-08T06:44:55;0.10;99.90
64939;DHT22;51453;47.738;7.420;2024-03-08T06:47:25;0.10;99.90
64939;DHT22;51453;47.738;7.420;2024-03-08T06:49:51;0.30;99.90
64939;DHT22;51453;47.738;7.420;2024-03-08T06:52:17;0.40;99.90
64939;DHT22;51453;47.738;7.420;2024-03-08T06:54:43;0.50;99.90
64939;DHT22;51453;47.738;7.420;2024-03-08T06:57:08;0.60;99.90
64939;DHT22;51453;47.738;7.420;2024-03-08T06:59:36;0.70;99.90
64939;DHT22;51453;47.738;7.420;2024-03-08T07:02:02;0.80;99.90
64939;DHT22;51453;47.738;7.420;2024-03-08T07:04:28;0.90;99.90
64939;DHT22;51453;47.738;7.420;2024-03-08T07:06:58;1.10;99.90
64939;DHT22;51453;47.738;7.420;2024-03-08T07:09:24;1.20;99.90
64939;DHT22;51453;47.738;7.420;2024-03-08T07:11:50;1.30;99.90
64939;DHT22;51453;47.738;7.420;2024-03-08T07:14:23;1.40;99.90
64939;DHT22;51453;47.738;7.420;2024-03-08T07:16:49;1.50;99.90
64939;DHT22;51453;47.738;7.420;2024-03-08T07:19:16;1.50;99.90
64939;DHT22;51453;47.738;7.420;2024-03-08T07:21:43;1.60;99.90
64939;DHT22;51453;47.738;7.420;2024-03-08T07:24:09;1.70;99.90
64939;DHT22;51453;47.738;7.420;2024-03-08T07:26:50;1.80;99.90
64939;DHT22;51453;47.738;7.420;2024-03-08T07:29:17;2.00;99.90
64939;DHT22;51453;47.738;7.420;2024-03-08T07:31:43;2.20;99.90
64939;DHT22;51453;47.738;7.420;2024-03-08T07:34:27;2.20;99.90
64939;DHT22;51453;47.738;7.420;2024-03-08T07:36:53;2.20;99.90
64939;DHT22;51453;47.738;7.420;2024-03-08T07:39:18;2.30;99.90
64939;DHT22;51453;47.738;7.420;2024-03-08T07:41:44;2.40;99.90
64939;DHT22;51453;47.738;7.420;2024-03-08T07:44:10;2.50;99.90
64939;DHT22;51453;47.738;7.420;2024-03-08T07:46:35;2.60;99.90
64939;DHT22;51453;47.738;7.420;2024-03-08T07:49:02;2.70;99.90
64939;DHT22;51453;47.738;7.420;2024-03-08T07:51:28;2.90;99.90
64939;DHT22;51453;47.738;7.420;2024-03-08T07:53:54;2.90;99.90
64939;DHT22;51453;47.738;7.420;2024-03-08T07:56:20;3.00;99.90
64939;DHT22;51453;47.738;7.420;2024-03-08T07:58:47;3.20;99.90
64939;DHT22;51453;47.738;7.420;2024-03-08T08:01:19;3.30;99.90
64939;DHT22;51453;47.738;7.420;2024-03-08T08:03:46;3.40;99.90
64939;DHT22;51453;47.738;7.420;2024-03-08T08:06:11;3.40;99.90
64939;DHT22;51453;47.738;7.420;2024-03-08T08:08:44;3.50;99.90
64939;DHT22;51453;47.738;7.420;2024-03-08T08:11:10;3.60;99.90
64939;DHT22;51453;47.738;7.420;2024-03-08T08:13:41;3.70;99.90
64939;DHT22;51453;47.738;7.420;2024-03-08T08:16:07;3.70;99.90
64939;DHT22;51453;47.738;7.420;2024-03-08T08:18:33;3.80;99.90
64939;DHT22;51453;47.738;7.420;2024-03-08T08:20:59;3.90;99.90
64939;DHT22;51453;47.738;7.420;2024-03-08T08:23:27;4.00;99.90
64939;DHT22;51453;47.738;7.420;2024-03-08T08:25:53;4.10;99.90
64939;DHT22;51453;47.738;7.420;2024-03-08T08:28:18;4.10;99.90
64939;DHT22;51453;47.738;7.420;2024-03-08T08:30:45;4.20;99.90
64939;DHT22;51453;47.738;7.420;2024-03-08T08:33:10;4.30;99.90
64939;DHT22;51453;47.738;7.420;2024-03-08T08:35:39;4.40;99.90
64939;DHT22;51453;47.738;7.420;2024-03-08T08:38:05;4.60;99.90
64939;DHT22;51453;47.738;7.420;2024-03-08T08:40:30;4.70;99.90
64939;DHT22;51453;47.738;7.420;2024-03-08T08:42:58;4.80;99.90
64939;DHT22;51453;47.738;7.420;2024-03-08T08:45:23;4.90;99.90
64939;DHT22;51453;47.738;7.420;2024-03-08T08:47:49;5.00;99.90
64939;DHT22;51453;47.738;7.420;2024-03-08T08:50:15;5.10;99.90
64939;DHT22;51453;47.738;7.420;2024-03-08T08:52:42;5.10;99.90
64939;DHT22;51453;47.738;7.420;2024-03-08T08:55:09;5.20;99.90
64939;DHT22;51453;47.738;7.420;2024-03-08T08:57:40;5.30;99.90
64939;DHT22;51453;47.738;7.420;2024-03-08T09:00:06;5.30;99.90
64939;DHT22;51453;47.738;7.420;2024-03-08T09:02:40;5.30;99.90
64939;DHT22;51453;47.738;7.420;2024-03-08T09:05:07;5.30;99.90
64939;DHT22;51453;47.738;7.420;2024-03-08T09:07:36;5.40;99.90
64939;DHT22;51453;47.738;7.420;2024-03-08T09:10:03;5.50;99.90
64939;DHT22;51453;47.738;7.420;2024-03-08T09:12:29;5.60;99.90
64939;DHT22;51453;47.738;7.420;2024-03-08T09:14:55;5.60;99.90
64939;DHT22;51453;47.738;7.420;2024-03-08T09:17:20;5.70;99.90
64939;DHT22;51453;47.738;7.420;2024-03-08T09:19:49;5.70;99.90
64939;DHT22;51453;47.738;7.420;2024-03-08T09:22:15;5.70;99.90
64939;DHT22;51453;47.738;7.420;2024-03-08T09:24:41;5.80;99.90
64939;DHT22;51453;47.738;7.420;2024-03-08T09:27:08;5.90;99.90
64939;DHT22;51453;47.738;7.420;2024-03-08T09:29:35;6.00;99.90
64939;DHT22;51453;47.738;7.420;2024-03-08T09:32:01;6.20;99.90
64939;DHT22;51453;47.738;7.420;2024-03-08T09:34:26;6.30;99.90
64939;DHT22;51453;47.738;7.420;2024-03-08T09:36:52;6.20;99.90
64939;DHT22;51453;47.738;7.420;2024-03-08T09:39:18;6.20;99.90
64939;DHT22;51453;47.738;7.420;2024-03-08T09:41:46;6.40;99.90
64939;DHT22;51453;47.738;7.420;2024-03-08T09:44:15;6.50;99.90
64939;DHT22;51453;47.738;7.420;2024-03-08T09:46:41;6.60;99.90
64939;DHT22;51453;47.738;7.420;2024-03-08T09:49:07;6.70;99.90
64939;DHT22;51453;47.738;7.420;2024-03-08T09:51:34;6.70;99.90
64939;DHT22;51453;47.738;7.420;2024-03-08T09:54:01;6.80;99.90
64939;DHT22;51453;47.738;7.420;2024-03-08T09:56:32;6.80;99.90
64939;DHT22;51453;47.738;7.420;2024-03-08T09:58:58;6.90;99.90
64939;DHT22;51453;47.738;7.420;2024-03-08T10:01:42;6.90;99.90
64939;DHT22;51453;47.738;7.420;2024-03-08T10:04:09;6.90;99.90
64939;DHT22;51453;47.738;7.420;2024-03-08T10:06:35;7.00;99.90
64939;DHT22;51453;47.738;7.420;2024-03-08T10:09:02;7.20;99.90
64939;DHT22;51453;47.738;7.420;2024-03-08T10:11:27;7.30;99.90
64939;DHT22;51453;47.738;7.420;2024-03-08T10:13:54;7.30;99.90
64939;DHT22;51453;47.738;7.420;2024-03-08T10:16:20;7.20;99.90
64939;DHT22;51453;47.738;7.420;2024-03-08T10:18:46;7.30;99.90
64939;DHT22;51453;47.738;7.420;2024-03-08T10:21:12;7.20;99.90
64939;DHT22;51453;47.738;7.420;2024-03-08T10:23:40;7.30;99.90
64939;DHT22;51453;47.738;7.420;2024-03-08T10:26:18;7.60;99.90
64939;DHT22;51453;47.738;7.420;2024-03-08T10:28:47;7.70;99.90
64939;DHT22;51453;47.738;7.420;2024-03-08T10:31:16;7.90;99.90
64939;DHT22;51453;47.738;7.420;2024-03-08T10:33:42;7.90;99.90
64939;DHT22;51453;47.738;7.420;2024-03-08T10:36:08;7.90;99.90
64939;DHT22;51453;47.738;7.420;2024-03-08T10:38:41;7.90;99.90
64939;DHT22;51453;47.738;7.420;2024-03-08T10:41:09;7.90;99.90
64939;DHT22;51453;47.738;7.420;2024-03-08T10:46:30;8.00;99.90
64939;DHT22;51453;47.738;7.420;2024-03-08T10:48:57;8.00;99.90
64939;DHT22;51453;47.738;7.420;2024-03-08T10:51:25;8.10;99.90
64939;DHT22;51453;47.738;7.420;2024-03-08T10:53:52;8.10;99.90
64939;DHT22;51453;47.738;7.420;2024-03-08T10:56:19;8.10;99.90
64939;DHT22;51453;47.738;7.420;2024-03-08T10:58:46;8.20;99.90
64939;DHT22;51453;47.738;7.420;2024-03-08T11:01:12;8.30;99.90
64939;DHT22;51453;47.738;7.420;2024-03-08T11:06:07;8.30;99.90
64939;DHT22;51453;47.738;7.420;2024-03-08T11:08:36;8.50;99.90
64939;DHT22;51453;47.738;7.420;2024-03-08T11:11:02;8.50;99.90
64939;DHT22;51453;47.738;7.420;2024-03-08T11:13:39;8.60;99.90
64939;DHT22;51453;47.738;7.420;2024-03-08T11:16:37;8.70;99.90
64939;DHT22;51453;47.738;7.420;2024-03-08T11:19:26;8.70;99.90
64939;DHT22;51453;47.738;7.420;2024-03-08T11:21:58;8.70;99.90
64939;DHT22;51453;47.738;7.420;2024-03-08T11:24:24;8.70;99.90
64939;DHT22;51453;47.738;7.420;2024-03-08T11:26:56;8.80;99.90
64939;DHT22;51453;47.738;7.420;2024-03-08T11:32:26;8.80;99.90
64939;DHT22;51453;47.738;7.420;2024-03-08T11:34:53;8.90;99.90
64939;DHT22;51453;47.738;7.420;2024-03-08T11:37:20;9.10;99.90
64939;DHT22;51453;47.738;7.420;2024-03-08T11:39:49;9.10;99.90
64939;DHT22;51453;47.738;7.420;2024-03-08T11:42:16;9.10;99.90
64939;DHT22;51453;47.738;7.420;2024-03-08T11:44:45;9.20;99.90
64939;DHT22;51453;47.738;7.420;2024-03-08T11:47:11;9.40;99.90
64939;DHT22;51453;47.738;7.420;2024-03-08T11:49:41;9.40;99.90
64939;DHT22;51453;47.738;7.420;2024-03-08T11:52:15;9.30;99.90
64939;DHT22;51453;47.738;7.420;2024-03-08T11:54:54;9.50;99.90
64939;DHT22;51453;47.738;7.420;2024-03-08T11:57:22;9.50;99.90
64939;DHT22;51453;47.738;7.420;2024-03-08T11:59:55;9.50;99.90
64939;DHT22;51453;47.738;7.420;2024-03-08T12:02:31;9.50;99.90
64939;DHT22;51453;47.738;7.420;2024-03-08T12:04:58;9.60;99.90
64939;DHT22;51453;47.738;7.420;2024-03-08T12:07:29;9.70;99.90
64939;DHT22;51453;47.738;7.420;2024-03-08T12:10:19;9.70;99.90
64939;DHT22;51453;47.738;7.420;2024-03-08T12:12:47;9.70;99.90
64939;DHT22;51453;47.738;7.420;2024-03-08T12:15:19;9.80;99.90
64939;DHT22;51453;47.738;7.420;2024-03-08T12:17:47;9.80;99.90
64939;DHT22;51453;47.738;7.420;2024-03-08T12:20:26;10.00;99.90
64939;DHT22;51453;47.738;7.420;2024-03-08T12:22:54;10.00;99.90
64939;DHT22;51453;47.738;7.420;2024-03-08T12:25:22;10.10;99.90
64939;DHT22;51453;47.738;7.420;2024-03-08T12:27:48;10.20;99.90
64939;DHT22;51453;47.738;7.420;2024-03-08T12:30:24;10.30;99.90
64939;DHT22;51453;47.738;7.420;2024-03-08T12:32:59;10.20;99.90
64939;DHT22;51453;47.738;7.420;2024-03-08T12:35:29;10.20;99.90
64939;DHT22;51453;47.738;7.420;2024-03-08T12:37:57;10.30;99.90
64939;DHT22;51453;47.738;7.420;2024-03-08T12:40:30;10.40;99.90
64939;DHT22;51453;47.738;7.420;2024-03-08T12:43:00;10.50;99.90
64939;DHT22;51453;47.738;7.420;2024-03-08T12:45:26;10.60;99.90
64939;DHT22;51453;47.738;7.420;2024-03-08T12:47:53;10.70;99.90
64939;DHT22;51453;47.738;7.420;2024-03-08T12:50:20;10.70;99.90
64939;DHT22;51453;47.738;7.420;2024-03-08T12:52:46;10.70;99.90
64939;DHT22;51453;47.738;7.420;2024-03-08T12:55:11;10.70;99.90
64939;DHT22;51453;47.738;7.420;2024-03-08T12:57:38;10.70;99.90
64939;DHT22;51453;47.738;7.420;2024-03-08T13:00:04;10.70;99.90
64939;DHT22;51453;47.738;7.420;2024-03-08T13:02:30;10.60;99.90
64939;DHT22;51453;47.738;7.420;2024-03-08T13:04:57;10.70;99.90
64939;DHT22;51453;47.738;7.420;2024-03-08T13:07:25;10.70;99.90
64939;DHT22;51453;47.738;7.420;2024-03-08T13:09:54;10.70;99.90
64939;DHT22;51453;47.738;7.420;2024-03-08T13:12:21;10.80;99.90
64939;DHT22;51453;47.738;7.420;2024-03-08T13:14:47;10.80;99.90
64939;DHT22;51453;47.738;7.420;2024-03-08T13:17:14;10.90;99.90
64939;DHT22;51453;47.738;7.420;2024-03-08T13:19:40;11.00;99.90
64939;DHT22;51453;47.738;7.420;2024-03-08T13:22:06;11.10;99.90
64939;DHT22;51453;47.738;7.420;2024-03-08T13:24:33;11.10;99.90
64939;DHT22;51453;47.738;7.420;2024-03-08T13:27:01;11.10;99.90
64939;DHT22;51453;47.738;7.420;2024-03-08T13:29:27;11.20;99.90
64939;DHT22;51453;47.738;7.420;2024-03-08T13:31:53;11.30;99.90
64939;DHT22;51453;47.738;7.420;2024-03-08T13:34:21;11.30;99.90
64939;DHT22;51453;47.738;7.420;2024-03-08T13:36:55;11.20;99.90
64939;DHT22;51453;47.738;7.420;2024-03-08T13:39:25;11.20;99.90
64939;DHT22;51453;47.738;7.420;2024-03-08T13:41:51;11.20;99.90
64939;DHT22;51453;47.738;7.420;2024-03-08T13:44:17;11.30;99.90
64939;DHT22;51453;47.738;7.420;2024-03-08T13:46:43;11.30;99.90
64939;DHT22;51453;47.738;7.420;2024-03-08T13:49:08;11.30;99.90
64939;DHT22;51453;47.738;7.420;2024-03-08T13:51:36;11.20;99.90
64939;DHT22;51453;47.738;7.420;2024-03-08T13:54:02;11.00;99.90
64939;DHT22;51453;47.738;7.420;2024-03-08T13:56:28;10.90;99.90
64939;DHT22;51453;47.738;7.420;2024-03-08T13:58:56;10.90;99.90
64939;DHT22;51453;47.738;7.420;2024-03-08T14:01:22;10.90;99.90
64939;DHT22;51453;47.738;7.420;2024-03-08T14:03:48;11.00;99.90
64939;DHT22;51453;47.738;7.420;2024-03-08T14:06:14;11.10;99.90
64939;DHT22;51453;47.738;7.420;2024-03-08T14:08:39;11.20;99.90
64939;DHT22;51453;47.738;7.420;2024-03-08T14:11:05;11.20;99.90
64939;DHT22;51453;47.738;7.420;2024-03-08T14:13:43;11.30;99.90
64939;DHT22;51453;47.738;7.420;2024-03-08T14:16:12;11.30;99.90
64939;DHT22;51453;47.738;7.420;2024-03-08T14:18:38;11.40;99.90
64939;DHT22;51453;47.738;7.420;2024-03-08T14:21:05;11.40;99.90
64939;DHT22;51453;47.738;7.420;2024-03-08T14:23:33;11.40;99.90
64939;DHT22;51453;47.738;7.420;2024-03-08T14:25:59;11.40;99.90
64939;DHT22;51453;47.738;7.420;2024-03-08T14:28:25;11.40;99.90
64939;DHT22;51453;47.738;7.420;2024-03-08T14:30:53;11.30;99.90
64939;DHT22;51453;47.738;7.420;2024-03-08T14:33:19;11.30;99.90
64939;DHT22;51453;47.738;7.420;2024-03-08T14:35:44;11.10;99.90
64939;DHT22;51453;47.738;7.420;2024-03-08T14:38:12;11.10;99.90
64939;DHT22;51453;47.738;7.420;2024-03-08T14:40:39;11.20;99.90
64939;DHT22;51453;47.738;7.420;2024-03-08T14:43:05;11.50;99.90
64939;DHT22;51453;47.738;7.420;2024-03-08T14:45:31;11.50;99.90
64939;DHT22;51453;47.738;7.420;2024-03-08T14:47:57;11.30;99.90
64939;DHT22;51453;47.738;7.420;2024-03-08T14:50:24;11.40;99.90
64939;DHT22;51453;47.738;7.420;2024-03-08T14:52:50;11.40;99.90
64939;DHT22;51453;47.738;7.420;2024-03-08T14:55:19;11.50;99.90
64939;DHT22;51453;47.738;7.420;2024-03-08T14:57:50;11.60;99.90
64939;DHT22;51453;47.738;7.420;2024-03-08T15:00:20;11.50;99.90
64939;DHT22;51453;47.738;7.420;2024-03-08T15:03:01;11.50;99.90
64939;DHT22;51453;47.738;7.420;2024-03-08T15:05:27;11.60;99.90
64939;DHT22;51453;47.738;7.420;2024-03-08T15:07:54;11.60;99.90
64939;DHT22;51453;47.738;7.420;2024-03-08T15:10:22;11.60;99.90
64939;DHT22;51453;47.738;7.420;2024-03-08T15:12:51;11.40;99.90
64939;DHT22;51453;47.738;7.420;2024-03-08T15:15:21;11.40;99.90
64939;DHT22;51453;47.738;7.420;2024-03-08T15:17:48;11.30;99.90
64939;DHT22;51453;47.738;7.420;2024-03-08T15:20:15;11.30;99.90
64939;DHT22;51453;47.738;7.420;2024-03-08T15:22:50;11.30;99.90
64939;DHT22;51453;47.738;7.420;2024-03-08T15:25:17;11.10;99.90
64939;DHT22;51453;47.738;7.420;2024-03-08T15:27:49;10.90;99.90
64939;DHT22;51453;47.738;7.420;2024-03-08T15:30:14;10.80;99.90
64939;DHT22;51453;47.738;7.420;2024-03-08T15:32:45;10.70;99.90
64939;DHT22;51453;47.738;7.420;2024-03-08T15:35:11;10.70;99.90
64939;DHT22;51453;47.738;7.420;2024-03-08T15:37:42;10.70;99.90
64939;DHT22;51453;47.738;7.420;2024-03-08T15:40:10;10.70;99.90
64939;DHT22;51453;47.738;7.420;2024-03-08T15:45:20;10.80;99.90
64939;DHT22;51453;47.738;7.420;2024-03-08T15:47:46;10.80;99.90
64939;DHT22;51453;47.738;7.420;2024-03-08T15:50:12;10.80;99.90
64939;DHT22;51453;47.738;7.420;2024-03-08T15:52:38;10.80;99.90